sensor_id;sensor_type;location;lat;lon;timestamp;P1;durP1;ratioP1;P2;durP2;ratioP2
22166;SDS011;11249;52.468;13.776;2022-10-17T00:00:53;7.57;;;6.65;;
22166;SDS011;11249;52.468;13.776;2022-10-17T00:03:20;7.88;;;6.70;;
22166;SDS011;11249;52.468;13.776;2022-10-17T00:05:47;7.22;;;6.50;;
22166;SDS011;11249;52.468;13.776;2022-10-17T00:08:20;9.40;;;6.65;;
22166;SDS011;11249;52.468;13.776;2022-10-17T00:10:54;7.20;;;6.47;;
22166;SDS011;11249;52.468;13.776;2022-10-17T00:13:28;8.07;;;6.30;;
22166;SDS011;11249;52.468;13.776;2022-10-17T00:15:55;7.45;;;6.10;;
22166;SDS011;11249;52.468;13.776;2022-10-17T00:18:23;8.93;;;6.25;;
22166;SDS011;11249;52.468;13.776;2022-10-17T00:21:03;8.00;;;5.85;;
22166;SDS011;11249;52.468;13.776;2022-10-17T00:23:44;9.02;;;6.13;;
22166;SDS011;11249;52.468;13.776;2022-10-17T00:26:11;6.88;;;5.70;;
22166;SDS011;11249;52.468;13.776;2022-10-17T00:28:46;6.45;;;5.85;;
22166;SDS011;11249;52.468;13.776;2022-10-17T00:31:21;10.75;;;6.45;;
22166;SDS011;11249;52.468;13.776;2022-10-17T00:33:48;10.95;;;6.95;;
22166;SDS011;11249;52.468;13.776;2022-10-17T00:36:23;6.53;;;5.93;;
22166;SDS011;11249;52.468;13.776;2022-10-17T00:38:52;6.75;;;6.03;;
22166;SDS011;11249;52.468;13.776;2022-10-17T00:41:29;8.45;;;5.72;;
22166;SDS011;11249;52.468;13.776;2022-10-17T00:44:02;6.40;;;5.80;;
22166;SDS011;11249;52.468;13.776;2022-10-17T00:46:37;7.10;;;5.93;;
22166;SDS011;11249;52.468;13.776;2022-10-17T00:49:05;6.30;;;5.70;;
22166;SDS011;11249;52.468;13.776;2022-10-17T00:51:42;6.32;;;5.45;;
22166;SDS011;11249;52.468;13.776;2022-10-17T00:54:26;6.35;;;5.75;;
22166;SDS011;11249;52.468;13.776;2022-10-17T00:56:56;6.00;;;5.25;;
22166;SDS011;11249;52.468;13.776;2022-10-17T00:59:31;6.43;;;5.25;;
22166;SDS011;11249;52.468;13.776;2022-10-17T01:01:59;5.53;;;4.97;;
22166;SDS011;11249;52.468;13.776;2022-10-17T01:04:43;9.05;;;5.28;;
22166;SDS011;11249;52.468;13.776;2022-10-17T01:07:11;7.30;;;5.18;;
22166;SDS011;11249;52.468;13.776;2022-10-17T01:09:38;7.18;;;5.20;;
22166;SDS011;11249;52.468;13.776;2022-10-17T01:12:23;6.10;;;5.00;;
22166;SDS011;11249;52.468;13.776;2022-10-17T01:15:16;8.02;;;5.28;;
22166;SDS011;11249;52.468;13.776;2022-10-17T01:18:12;5.95;;;4.70;;
22166;SDS011;11249;52.468;13.776;2022-10-17T01:21:14;6.35;;;5.28;;
22166;SDS011;11249;52.468;13.776;2022-10-17T01:24:32;5.50;;;4.93;;
22166;SDS011;11249;52.468;13.776;2022-10-17T01:27:30;5.22;;;4.72;;
22166;SDS011;11249;52.468;13.776;2022-10-17T01:36:11;6.55;;;4.80;;
22166;SDS011;11249;52.468;13.776;2022-10-17T01:39:18;6.00;;;5.40;;
22166;SDS011;11249;52.468;13.776;2022-10-17T01:42:10;5.82;;;5.05;;
22166;SDS011;11249;52.468;13.776;2022-10-17T01:45:18;5.65;;;5.15;;
22166;SDS011;11249;52.468;13.776;2022-10-17T01:47:50;5.00;;;4.50;;
22166;SDS011;11249;52.468;13.776;2022-10-17T01:50:27;5.70;;;4.97;;
22166;SDS011;11249;52.468;13.776;2022-10-17T01:53:01;5.32;;;4.78;;
22166;SDS011;11249;52.468;13.776;2022-10-17T01:55:39;5.45;;;4.95;;
22166;SDS011;11249;52.468;13.776;2022-10-17T01:58:17;5.28;;;4.78;;
22166;SDS011;11249;52.468;13.776;2022-10-17T02:00:49;8.63;;;4.78;;
22166;SDS011;11249;52.468;13.776;2022-10-17T02:03:23;6.05;;;4.60;;
22166;SDS011;11249;52.468;13.776;2022-10-17T02:05:53;7.33;;;4.47;;
22166;SDS011;11249;52.468;13.776;2022-10-17T02:08:27;5.60;;;4.70;;
22166;SDS011;11249;52.468;13.776;2022-10-17T02:11:06;5.13;;;4.68;;
22166;SDS011;11249;52.468;13.776;2022-10-17T02:13:54;4.75;;;4.13;;
22166;SDS011;11249;52.468;13.776;2022-10-17T02:16:50;4.70;;;4.30;;
22166;SDS011;11249;52.468;13.776;2022-10-17T02:22:42;5.60;;;4.55;;
22166;SDS011;11249;52.468;13.776;2022-10-17T02:30:57;4.40;;;4.00;;
22166;SDS011;11249;52.468;13.776;2022-10-17T02:33:34;7.30;;;3.92;;
22166;SDS011;11249;52.468;13.776;2022-10-17T02:36:14;4.57;;;3.78;;
22166;SDS011;11249;52.468;13.776;2022-10-17T02:38:51;4.10;;;3.80;;
22166;SDS011;11249;52.468;13.776;2022-10-17T02:41:20;4.78;;;4.38;;
22166;SDS011;11249;52.468;13.776;2022-10-17T02:43:48;5.88;;;3.67;;
22166;SDS011;11249;52.468;13.776;2022-10-17T02:46:27;7.22;;;3.60;;
22166;SDS011;11249;52.468;13.776;2022-10-17T02:49:00;3.97;;;3.58;;
22166;SDS011;11249;52.468;13.776;2022-10-17T02:51:51;5.38;;;4.28;;
22166;SDS011;11249;52.468;13.776;2022-10-17T02:54:35;5.22;;;4.72;;
22166;SDS011;11249;52.468;13.776;2022-10-17T02:57:09;5.35;;;4.85;;
22166;SDS011;11249;52.468;13.776;2022-10-17T02:59:57;5.10;;;4.60;;
22166;SDS011;11249;52.468;13.776;2022-10-17T03:02:46;5.18;;;4.68;;
22166;SDS011;11249;52.468;13.776;2022-10-17T03:05:24;6.70;;;4.40;;
22166;SDS011;11249;52.468;13.776;2022-10-17T03:07:53;4.47;;;4.07;;
22166;SDS011;11249;52.468;13.776;2022-10-17T03:10:27;5.32;;;4.57;;
22166;SDS011;11249;52.468;13.776;2022-10-17T03:12:54;7.53;;;4.80;;
22166;SDS011;11249;52.468;13.776;2022-10-17T03:15:21;6.45;;;5.75;;
22166;SDS011;11249;52.468;13.776;2022-10-17T03:17:54;9.15;;;6.32;;
22166;SDS011;11249;52.468;13.776;2022-10-17T03:20:21;8.65;;;5.38;;
22166;SDS011;11249;52.468;13.776;2022-10-17T03:23:01;5.93;;;5.32;;
22166;SDS011;11249;52.468;13.776;2022-10-17T03:25:41;5.40;;;4.90;;
22166;SDS011;11249;52.468;13.776;2022-10-17T03:28:14;7.70;;;6.10;;
22166;SDS011;11249;52.468;13.776;2022-10-17T03:30:41;5.80;;;5.07;;
22166;SDS011;11249;52.468;13.776;2022-10-17T03:33:14;6.63;;;5.55;;
22166;SDS011;11249;52.468;13.776;2022-10-17T03:35:41;6.45;;;5.72;;
22166;SDS011;11249;52.468;13.776;2022-10-17T03:38:19;6.45;;;5.18;;
22166;SDS011;11249;52.468;13.776;2022-10-17T03:40:53;8.05;;;5.28;;
22166;SDS011;11249;52.468;13.776;2022-10-17T03:43:27;6.53;;;5.80;;
22166;SDS011;11249;52.468;13.776;2022-10-17T03:45:55;9.52;;;5.93;;
22166;SDS011;11249;52.468;13.776;2022-10-17T03:48:24;9.30;;;6.57;;
22166;SDS011;11249;52.468;13.776;2022-10-17T03:50:59;6.88;;;6.28;;
22166;SDS011;11249;52.468;13.776;2022-10-17T03:53:33;6.90;;;6.18;;
22166;SDS011;11249;52.468;13.776;2022-10-17T03:56:13;7.68;;;6.68;;
22166;SDS011;11249;52.468;13.776;2022-10-17T03:58:42;7.35;;;6.60;;
22166;SDS011;11249;52.468;13.776;2022-10-17T04:01:16;6.78;;;6.07;;
22166;SDS011;11249;52.468;13.776;2022-10-17T04:03:47;9.80;;;7.07;;
22166;SDS011;11249;52.468;13.776;2022-10-17T04:06:15;7.85;;;6.47;;
22166;SDS011;11249;52.468;13.776;2022-10-17T04:08:48;7.47;;;6.63;;
22166;SDS011;11249;52.468;13.776;2022-10-17T04:11:16;10.38;;;7.38;;
22166;SDS011;11249;52.468;13.776;2022-10-17T04:13:44;7.93;;;6.43;;
22166;SDS011;11249;52.468;13.776;2022-10-17T04:16:17;7.70;;;6.60;;
22166;SDS011;11249;52.468;13.776;2022-10-17T04:18:44;7.50;;;6.80;;
22166;SDS011;11249;52.468;13.776;2022-10-17T04:21:25;9.32;;;6.85;;
22166;SDS011;11249;52.468;13.776;2022-10-17T04:24:07;8.40;;;6.90;;
22166;SDS011;11249;52.468;13.776;2022-10-17T04:26:43;7.90;;;7.10;;
22166;SDS011;11249;52.468;13.776;2022-10-17T04:29:11;8.75;;;7.72;;
22166;SDS011;11249;52.468;13.776;2022-10-17T04:31:44;9.82;;;8.57;;
22166;SDS011;11249;52.468;13.776;2022-10-17T04:34:11;11.32;;;9.25;;
22166;SDS011;11249;52.468;13.776;2022-10-17T04:36:45;10.30;;;9.02;;
22166;SDS011;11249;52.468;13.776;2022-10-17T04:39:18;12.85;;;8.98;;
22166;SDS011;11249;52.468;13.776;2022-10-17T04:41:45;13.18;;;9.85;;
22166;SDS011;11249;52.468;13.776;2022-10-17T04:44:12;12.30;;;9.82;;
22166;SDS011;11249;52.468;13.776;2022-10-17T04:46:45;11.60;;;9.00;;
22166;SDS011;11249;52.468;13.776;2022-10-17T04:49:18;13.40;;;9.55;;
22166;SDS011;11249;52.468;13.776;2022-10-17T04:51:45;19.17;;;9.90;;
22166;SDS011;11249;52.468;13.776;2022-10-17T04:54:18;13.38;;;9.50;;
22166;SDS011;11249;52.468;13.776;2022-10-17T04:56:45;9.55;;;8.43;;
22166;SDS011;11249;52.468;13.776;2022-10-17T04:59:12;9.73;;;7.82;;
22166;SDS011;11249;52.468;13.776;2022-10-17T05:01:47;12.95;;;7.60;;
22166;SDS011;11249;52.468;13.776;2022-10-17T05:04:14;12.70;;;7.68;;
22166;SDS011;11249;52.468;13.776;2022-10-17T05:06:50;11.05;;;8.23;;
22166;SDS011;11249;52.468;13.776;2022-10-17T05:09:16;15.02;;;8.90;;
22166;SDS011;11249;52.468;13.776;2022-10-17T05:11:43;11.88;;;9.05;;
22166;SDS011;11249;52.468;13.776;2022-10-17T05:14:16;10.13;;;8.45;;
22166;SDS011;11249;52.468;13.776;2022-10-17T05:16:43;14.18;;;9.30;;
22166;SDS011;11249;52.468;13.776;2022-10-17T05:19:16;13.60;;;8.82;;
22166;SDS011;11249;52.468;13.776;2022-10-17T05:21:56;11.90;;;8.98;;
22166;SDS011;11249;52.468;13.776;2022-10-17T05:24:36;13.25;;;9.07;;
22166;SDS011;11249;52.468;13.776;2022-10-17T05:27:09;13.65;;;10.48;;
22166;SDS011;11249;52.468;13.776;2022-10-17T05:29:36;17.95;;;10.88;;
22166;SDS011;11249;52.468;13.776;2022-10-17T05:32:03;10.20;;;9.23;;
22166;SDS011;11249;52.468;13.776;2022-10-17T05:34:37;13.23;;;9.90;;
22166;SDS011;11249;52.468;13.776;2022-10-17T05:37:04;14.55;;;9.32;;
22166;SDS011;11249;52.468;13.776;2022-10-17T05:39:31;12.57;;;10.13;;
22166;SDS011;11249;52.468;13.776;2022-10-17T05:42:04;14.00;;;10.10;;
22166;SDS011;11249;52.468;13.776;2022-10-17T05:44:38;13.68;;;10.45;;
22166;SDS011;11249;52.468;13.776;2022-10-17T05:47:07;11.50;;;10.27;;
22166;SDS011;11249;52.468;13.776;2022-10-17T05:49:40;15.82;;;12.30;;
22166;SDS011;11249;52.468;13.776;2022-10-17T05:52:17;15.18;;;11.45;;
22166;SDS011;11249;52.468;13.776;2022-10-17T05:54:50;15.20;;;11.02;;
22166;SDS011;11249;52.468;13.776;2022-10-17T05:57:17;11.55;;;10.10;;
22166;SDS011;11249;52.468;13.776;2022-10-17T05:59:50;13.77;;;11.15;;
22166;SDS011;11249;52.468;13.776;2022-10-17T06:02:17;18.00;;;14.15;;
22166;SDS011;11249;52.468;13.776;2022-10-17T06:04:50;12.20;;;10.82;;
22166;SDS011;11249;52.468;13.776;2022-10-17T06:07:17;17.58;;;13.10;;
22166;SDS011;11249;52.468;13.776;2022-10-17T06:09:44;17.50;;;13.23;;
22166;SDS011;11249;52.468;13.776;2022-10-17T06:12:16;16.95;;;13.20;;
22166;SDS011;11249;52.468;13.776;2022-10-17T06:14:50;18.48;;;13.55;;
22166;SDS011;11249;52.468;13.776;2022-10-17T06:17:23;15.25;;;13.18;;
22166;SDS011;11249;52.468;13.776;2022-10-17T06:19:50;19.55;;;14.10;;
22166;SDS011;11249;52.468;13.776;2022-10-17T06:22:17;15.38;;;12.75;;
22166;SDS011;11249;52.468;13.776;2022-10-17T06:24:57;16.90;;;14.70;;
22166;SDS011;11249;52.468;13.776;2022-10-17T06:27:30;15.73;;;13.55;;
22166;SDS011;11249;52.468;13.776;2022-10-17T06:29:57;23.40;;;15.35;;
22166;SDS011;11249;52.468;13.776;2022-10-17T06:32:30;18.75;;;13.98;;
22166;SDS011;11249;52.468;13.776;2022-10-17T06:34:58;22.73;;;15.65;;
22166;SDS011;11249;52.468;13.776;2022-10-17T06:37:25;17.00;;;13.93;;
22166;SDS011;11249;52.468;13.776;2022-10-17T06:40:02;20.30;;;13.73;;
22166;SDS011;11249;52.468;13.776;2022-10-17T06:42:30;21.27;;;14.82;;
22166;SDS011;11249;52.468;13.776;2022-10-17T06:45:04;17.88;;;14.82;;
22166;SDS011;11249;52.468;13.776;2022-10-17T06:47:31;21.80;;;15.23;;
22166;SDS011;11249;52.468;13.776;2022-10-17T06:50:03;22.88;;;15.90;;
22166;SDS011;11249;52.468;13.776;2022-10-17T06:52:30;18.17;;;14.13;;
22166;SDS011;11249;52.468;13.776;2022-10-17T06:54:57;21.70;;;14.60;;
22166;SDS011;11249;52.468;13.776;2022-10-17T06:57:30;23.13;;;14.85;;
22166;SDS011;11249;52.468;13.776;2022-10-17T06:59:57;17.52;;;13.57;;
22166;SDS011;11249;52.468;13.776;2022-10-17T07:02:24;20.63;;;14.35;;
22166;SDS011;11249;52.468;13.776;2022-10-17T07:04:57;14.88;;;12.93;;
22166;SDS011;11249;52.468;13.776;2022-10-17T07:07:24;19.63;;;14.30;;
22166;SDS011;11249;52.468;13.776;2022-10-17T07:09:57;21.23;;;14.25;;
22166;SDS011;11249;52.468;13.776;2022-10-17T07:12:24;17.80;;;13.30;;
22166;SDS011;11249;52.468;13.776;2022-10-17T07:14:51;18.70;;;13.32;;
22166;SDS011;11249;52.468;13.776;2022-10-17T07:17:24;17.02;;;13.18;;
22166;SDS011;11249;52.468;13.776;2022-10-17T07:19:51;18.33;;;13.55;;
22166;SDS011;11249;52.468;13.776;2022-10-17T07:22:18;19.80;;;12.88;;
22166;SDS011;11249;52.468;13.776;2022-10-17T07:24:51;15.57;;;12.88;;
22166;SDS011;11249;52.468;13.776;2022-10-17T07:27:31;17.35;;;12.05;;
22166;SDS011;11249;52.468;13.776;2022-10-17T07:30:04;16.35;;;12.13;;
22166;SDS011;11249;52.468;13.776;2022-10-17T07:32:38;16.65;;;12.65;;
22166;SDS011;11249;52.468;13.776;2022-10-17T07:35:05;14.55;;;11.70;;
22166;SDS011;11249;52.468;13.776;2022-10-17T07:37:38;17.95;;;12.40;;
22166;SDS011;11249;52.468;13.776;2022-10-17T07:40:06;13.55;;;11.77;;
22166;SDS011;11249;52.468;13.776;2022-10-17T07:42:36;15.20;;;10.82;;
22166;SDS011;11249;52.468;13.776;2022-10-17T07:45:09;13.50;;;10.70;;
22166;SDS011;11249;52.468;13.776;2022-10-17T07:47:42;15.63;;;11.35;;
22166;SDS011;11249;52.468;13.776;2022-10-17T07:50:09;14.82;;;11.35;;
22166;SDS011;11249;52.468;13.776;2022-10-17T07:52:42;12.70;;;11.23;;
22166;SDS011;11249;52.468;13.776;2022-10-17T07:55:09;13.50;;;10.77;;
22166;SDS011;11249;52.468;13.776;2022-10-17T07:57:42;18.55;;;11.05;;
22166;SDS011;11249;52.468;13.776;2022-10-17T08:00:15;12.30;;;9.43;;
22166;SDS011;11249;52.468;13.776;2022-10-17T08:02:42;15.95;;;10.27;;
22166;SDS011;11249;52.468;13.776;2022-10-17T08:05:08;12.25;;;9.38;;
22166;SDS011;11249;52.468;13.776;2022-10-17T08:07:41;14.65;;;9.88;;
22166;SDS011;11249;52.468;13.776;2022-10-17T08:10:09;11.00;;;9.65;;
22166;SDS011;11249;52.468;13.776;2022-10-17T08:12:44;12.40;;;9.73;;
22166;SDS011;11249;52.468;13.776;2022-10-17T08:15:11;13.45;;;9.07;;
22166;SDS011;11249;52.468;13.776;2022-10-17T08:17:38;12.77;;;9.07;;
22166;SDS011;11249;52.468;13.776;2022-10-17T08:20:10;10.73;;;7.80;;
22166;SDS011;11249;52.468;13.776;2022-10-17T08:22:50;9.95;;;8.02;;
22166;SDS011;11249;52.468;13.776;2022-10-17T08:25:31;11.48;;;6.68;;
22166;SDS011;11249;52.468;13.776;2022-10-17T08:27:58;10.20;;;7.13;;
22166;SDS011;11249;52.468;13.776;2022-10-17T08:30:32;11.07;;;7.40;;
22166;SDS011;11249;52.468;13.776;2022-10-17T08:32:59;11.73;;;6.50;;
22166;SDS011;11249;52.468;13.776;2022-10-17T08:35:26;8.57;;;6.50;;
22166;SDS011;11249;52.468;13.776;2022-10-17T08:37:58;8.68;;;6.43;;
22166;SDS011;11249;52.468;13.776;2022-10-17T08:40:39;8.32;;;6.20;;
22166;SDS011;11249;52.468;13.776;2022-10-17T08:43:11;7.32;;;5.40;;
22166;SDS011;11249;52.468;13.776;2022-10-17T08:45:51;9.00;;;5.57;;
22166;SDS011;11249;52.468;13.776;2022-10-17T08:48:24;7.40;;;5.85;;
22166;SDS011;11249;52.468;13.776;2022-10-17T08:51:00;7.80;;;5.43;;
22166;SDS011;11249;52.468;13.776;2022-10-17T08:53:46;8.90;;;5.55;;
22166;SDS011;11249;52.468;13.776;2022-10-17T08:56:32;8.75;;;5.60;;
22166;SDS011;11249;52.468;13.776;2022-10-17T08:59:32;9.15;;;5.88;;
22166;SDS011;11249;52.468;13.776;2022-10-17T09:02:14;6.53;;;5.38;;
22166;SDS011;11249;52.468;13.776;2022-10-17T09:08:08;9.40;;;5.88;;
22166;SDS011;11249;52.468;13.776;2022-10-17T09:10:56;7.22;;;4.95;;
22166;SDS011;11249;52.468;13.776;2022-10-17T09:16:06;6.25;;;5.57;;
22166;SDS011;11249;52.468;13.776;2022-10-17T09:19:00;9.63;;;5.15;;
22166;SDS011;11249;52.468;13.776;2022-10-17T09:21:47;9.38;;;5.15;;
22166;SDS011;11249;52.468;13.776;2022-10-17T09:24:17;5.97;;;5.03;;
22166;SDS011;11249;52.468;13.776;2022-10-17T09:27:04;4.88;;;4.43;;
22166;SDS011;11249;52.468;13.776;2022-10-17T09:29:39;7.75;;;5.05;;
22166;SDS011;11249;52.468;13.776;2022-10-17T09:32:20;5.88;;;4.88;;
22166;SDS011;11249;52.468;13.776;2022-10-17T09:34:50;5.35;;;4.85;;
22166;SDS011;11249;52.468;13.776;2022-10-17T09:37:18;5.00;;;4.40;;
22166;SDS011;11249;52.468;13.776;2022-10-17T09:39:50;6.00;;;4.63;;
22166;SDS011;11249;52.468;13.776;2022-10-17T09:42:18;9.18;;;6.50;;
22166;SDS011;11249;52.468;13.776;2022-10-17T09:44:50;11.88;;;7.88;;
22166;SDS011;11249;52.468;13.776;2022-10-17T09:47:24;8.23;;;5.32;;
22166;SDS011;11249;52.468;13.776;2022-10-17T09:49:56;6.53;;;5.00;;
22166;SDS011;11249;52.468;13.776;2022-10-17T09:52:27;6.13;;;5.07;;
22166;SDS011;11249;52.468;13.776;2022-10-17T09:57:54;9.63;;;4.90;;
22166;SDS011;11249;52.468;13.776;2022-10-17T10:00:35;7.05;;;4.90;;
22166;SDS011;11249;52.468;13.776;2022-10-17T10:05:59;8.23;;;4.50;;
22166;SDS011;11249;52.468;13.776;2022-10-17T10:08:29;5.70;;;4.57;;
22166;SDS011;11249;52.468;13.776;2022-10-17T10:11:05;5.05;;;4.55;;
22166;SDS011;11249;52.468;13.776;2022-10-17T10:13:39;16.27;;;4.88;;
22166;SDS011;11249;52.468;13.776;2022-10-17T10:18:41;6.90;;;5.15;;
22166;SDS011;11249;52.468;13.776;2022-10-17T10:21:19;5.10;;;4.60;;
22166;SDS011;11249;52.468;13.776;2022-10-17T10:26:41;7.80;;;4.80;;
22166;SDS011;11249;52.468;13.776;2022-10-17T10:32:20;6.28;;;4.55;;
22166;SDS011;11249;52.468;13.776;2022-10-17T10:34:49;6.70;;;4.18;;
22166;SDS011;11249;52.468;13.776;2022-10-17T10:37:26;5.82;;;5.07;;
22166;SDS011;11249;52.468;13.776;2022-10-17T10:39:56;4.97;;;4.20;;
22166;SDS011;11249;52.468;13.776;2022-10-17T10:44:58;9.73;;;4.90;;
22166;SDS011;11249;52.468;13.776;2022-10-17T10:47:30;7.22;;;4.25;;
22166;SDS011;11249;52.468;13.776;2022-10-17T10:50:19;5.97;;;4.82;;
22166;SDS011;11249;52.468;13.776;2022-10-17T10:56:02;5.50;;;4.50;;
22166;SDS011;11249;52.468;13.776;2022-10-17T10:59:05;6.22;;;4.50;;
22166;SDS011;11249;52.468;13.776;2022-10-17T11:04:41;6.55;;;4.30;;
22166;SDS011;11249;52.468;13.776;2022-10-17T11:07:31;7.95;;;4.47;;
22166;SDS011;11249;52.468;13.776;2022-10-17T11:10:21;4.82;;;4.22;;
22166;SDS011;11249;52.468;13.776;2022-10-17T11:13:03;5.32;;;4.30;;
22166;SDS011;11249;52.468;13.776;2022-10-17T11:15:46;5.65;;;4.80;;
22166;SDS011;11249;52.468;13.776;2022-10-17T11:18:33;7.03;;;5.03;;
22166;SDS011;11249;52.468;13.776;2022-10-17T11:21:24;4.53;;;4.00;;
22166;SDS011;11249;52.468;13.776;2022-10-17T11:24:24;8.52;;;4.53;;
22166;SDS011;11249;52.468;13.776;2022-10-17T11:26:58;6.75;;;4.68;;
22166;SDS011;11249;52.468;13.776;2022-10-17T11:29:30;5.03;;;4.30;;
22166;SDS011;11249;52.468;13.776;2022-10-17T11:32:00;6.95;;;5.35;;
22166;SDS011;11249;52.468;13.776;2022-10-17T11:34:54;8.35;;;5.03;;
22166;SDS011;11249;52.468;13.776;2022-10-17T11:37:29;9.90;;;4.47;;
22166;SDS011;11249;52.468;13.776;2022-10-17T11:40:05;6.57;;;4.80;;
22166;SDS011;11249;52.468;13.776;2022-10-17T11:42:50;5.82;;;4.65;;
22166;SDS011;11249;52.468;13.776;2022-10-17T11:45:22;9.40;;;5.10;;
22166;SDS011;11249;52.468;13.776;2022-10-17T11:47:54;6.15;;;4.85;;
22166;SDS011;11249;52.468;13.776;2022-10-17T11:50:29;7.93;;;5.43;;
22166;SDS011;11249;52.468;13.776;2022-10-17T11:53:23;6.35;;;5.18;;
22166;SDS011;11249;52.468;13.776;2022-10-17T11:55:53;7.20;;;5.50;;
22166;SDS011;11249;52.468;13.776;2022-10-17T12:01:06;7.82;;;5.78;;
22166;SDS011;11249;52.468;13.776;2022-10-17T12:06:46;8.48;;;5.60;;
22166;SDS011;11249;52.468;13.776;2022-10-17T12:09:55;13.05;;;6.15;;
22166;SDS011;11249;52.468;13.776;2022-10-17T12:12:28;7.25;;;5.88;;
22166;SDS011;11249;52.468;13.776;2022-10-17T12:17:45;9.65;;;6.22;;
22166;SDS011;11249;52.468;13.776;2022-10-17T12:20:36;7.03;;;6.30;;
22166;SDS011;11249;52.468;13.776;2022-10-17T12:25:47;10.32;;;6.55;;
22166;SDS011;11249;52.468;13.776;2022-10-17T12:28:39;7.38;;;6.65;;
22166;SDS011;11249;52.468;13.776;2022-10-17T12:31:13;8.48;;;7.10;;
22166;SDS011;11249;52.468;13.776;2022-10-17T12:33:58;9.43;;;6.07;;
22166;SDS011;11249;52.468;13.776;2022-10-17T12:49:43;7.95;;;6.18;;
22166;SDS011;11249;52.468;13.776;2022-10-17T12:52:14;7.68;;;6.32;;
22166;SDS011;11249;52.468;13.776;2022-10-17T12:54:44;6.07;;;5.47;;
22166;SDS011;11249;52.468;13.776;2022-10-17T12:57:34;11.43;;;6.45;;
22166;SDS011;11249;52.468;13.776;2022-10-17T13:00:13;6.10;;;5.60;;
22166;SDS011;11249;52.468;13.776;2022-10-17T13:02:49;7.35;;;5.82;;
22166;SDS011;11249;52.468;13.776;2022-10-17T13:05:22;10.73;;;5.82;;
22166;SDS011;11249;52.468;13.776;2022-10-17T13:07:53;8.80;;;6.70;;
22166;SDS011;11249;52.468;13.776;2022-10-17T13:10:23;7.03;;;6.32;;
22166;SDS011;11249;52.468;13.776;2022-10-17T13:13:05;6.63;;;5.80;;
22166;SDS011;11249;52.468;13.776;2022-10-17T13:15:52;8.85;;;6.68;;
22166;SDS011;11249;52.468;13.776;2022-10-17T13:18:21;9.68;;;6.53;;
22166;SDS011;11249;52.468;13.776;2022-10-17T13:20:55;11.18;;;6.43;;
22166;SDS011;11249;52.468;13.776;2022-10-17T13:23:31;8.02;;;6.20;;
22166;SDS011;11249;52.468;13.776;2022-10-17T13:26:16;7.80;;;7.00;;
22166;SDS011;11249;52.468;13.776;2022-10-17T13:28:48;7.47;;;6.68;;
22166;SDS011;11249;52.468;13.776;2022-10-17T13:31:40;7.07;;;6.25;;
22166;SDS011;11249;52.468;13.776;2022-10-17T13:34:17;7.47;;;6.60;;
22166;SDS011;11249;52.468;13.776;2022-10-17T13:36:48;8.32;;;5.75;;
22166;SDS011;11249;52.468;13.776;2022-10-17T13:39:19;7.32;;;6.63;;
22166;SDS011;11249;52.468;13.776;2022-10-17T13:42:18;8.85;;;6.25;;
22166;SDS011;11249;52.468;13.776;2022-10-17T13:44:49;7.65;;;6.88;;
22166;SDS011;11249;52.468;13.776;2022-10-17T13:47:22;7.45;;;6.28;;
22166;SDS011;11249;52.468;13.776;2022-10-17T13:49:52;7.95;;;6.70;;
22166;SDS011;11249;52.468;13.776;2022-10-17T13:52:21;9.85;;;6.47;;
22166;SDS011;11249;52.468;13.776;2022-10-17T13:54:51;7.72;;;6.60;;
22166;SDS011;11249;52.468;13.776;2022-10-17T13:59:53;9.82;;;7.60;;
22166;SDS011;11249;52.468;13.776;2022-10-17T14:02:28;8.80;;;6.30;;
22166;SDS011;11249;52.468;13.776;2022-10-17T14:07:54;10.95;;;6.45;;
22166;SDS011;11249;52.468;13.776;2022-10-17T14:10:36;9.18;;;7.43;;
22166;SDS011;11249;52.468;13.776;2022-10-17T14:13:05;9.45;;;7.40;;
22166;SDS011;11249;52.468;13.776;2022-10-17T14:15:43;8.05;;;7.25;;
22166;SDS011;11249;52.468;13.776;2022-10-17T14:18:16;8.55;;;6.85;;
22166;SDS011;11249;52.468;13.776;2022-10-17T14:20:56;8.50;;;7.45;;
22166;SDS011;11249;52.468;13.776;2022-10-17T14:23:43;11.88;;;9.65;;
22166;SDS011;11249;52.468;13.776;2022-10-17T14:28:39;11.27;;;9.30;;
22166;SDS011;11249;52.468;13.776;2022-10-17T14:31:11;11.15;;;7.95;;
22166;SDS011;11249;52.468;13.776;2022-10-17T14:33:55;12.40;;;9.38;;
22166;SDS011;11249;52.468;13.776;2022-10-17T14:36:33;12.48;;;8.93;;
22166;SDS011;11249;52.468;13.776;2022-10-17T14:39:05;19.48;;;15.40;;
22166;SDS011;11249;52.468;13.776;2022-10-17T14:41:41;15.82;;;13.60;;
22166;SDS011;11249;52.468;13.776;2022-10-17T14:44:15;22.50;;;18.92;;
22166;SDS011;11249;52.468;13.776;2022-10-17T14:46:49;14.65;;;10.88;;
22166;SDS011;11249;52.468;13.776;2022-10-17T14:49:22;11.93;;;8.30;;
22166;SDS011;11249;52.468;13.776;2022-10-17T14:52:10;18.88;;;8.32;;
22166;SDS011;11249;52.468;13.776;2022-10-17T14:54:44;10.25;;;8.15;;
22166;SDS011;11249;52.468;13.776;2022-10-17T14:57:17;14.35;;;10.95;;
22166;SDS011;11249;52.468;13.776;2022-10-17T14:59:47;11.45;;;8.50;;
22166;SDS011;11249;52.468;13.776;2022-10-17T15:02:20;9.63;;;8.25;;
22166;SDS011;11249;52.468;13.776;2022-10-17T15:04:47;9.60;;;8.32;;
22166;SDS011;11249;52.468;13.776;2022-10-17T15:07:14;8.32;;;7.45;;
22166;SDS011;11249;52.468;13.776;2022-10-17T15:09:42;12.93;;;8.35;;
22166;SDS011;11249;52.468;13.776;2022-10-17T15:12:17;10.30;;;9.10;;
22166;SDS011;11249;52.468;13.776;2022-10-17T15:14:45;9.07;;;7.82;;
22166;SDS011;11249;52.468;13.776;2022-10-17T15:17:15;10.95;;;8.52;;
22166;SDS011;11249;52.468;13.776;2022-10-17T15:19:46;11.02;;;7.78;;
22166;SDS011;11249;52.468;13.776;2022-10-17T15:22:13;9.82;;;8.48;;
22166;SDS011;11249;52.468;13.776;2022-10-17T15:24:41;9.20;;;8.05;;
22166;SDS011;11249;52.468;13.776;2022-10-17T15:27:13;9.02;;;6.68;;
22166;SDS011;11249;52.468;13.776;2022-10-17T15:29:45;9.93;;;6.85;;
22166;SDS011;11249;52.468;13.776;2022-10-17T15:32:12;8.45;;;7.57;;
22166;SDS011;11249;52.468;13.776;2022-10-17T15:34:39;10.85;;;8.05;;
22166;SDS011;11249;52.468;13.776;2022-10-17T15:37:06;9.50;;;8.15;;
22166;SDS011;11249;52.468;13.776;2022-10-17T15:39:50;8.73;;;6.97;;
22166;SDS011;11249;52.468;13.776;2022-10-17T15:42:25;8.85;;;6.93;;
22166;SDS011;11249;52.468;13.776;2022-10-17T15:44:55;8.10;;;7.28;;
22166;SDS011;11249;52.468;13.776;2022-10-17T15:47:26;8.30;;;7.38;;
22166;SDS011;11249;52.468;13.776;2022-10-17T15:49:59;9.73;;;7.40;;
22166;SDS011;11249;52.468;13.776;2022-10-17T15:52:27;8.45;;;7.05;;
22166;SDS011;11249;52.468;13.776;2022-10-17T15:54:53;10.77;;;7.10;;
22166;SDS011;11249;52.468;13.776;2022-10-17T15:57:26;8.85;;;7.10;;
22166;SDS011;11249;52.468;13.776;2022-10-17T15:59:54;11.32;;;6.88;;
22166;SDS011;11249;52.468;13.776;2022-10-17T16:02:23;12.35;;;7.28;;
22166;SDS011;11249;52.468;13.776;2022-10-17T16:04:50;13.23;;;7.50;;
22166;SDS011;11249;52.468;13.776;2022-10-17T16:07:18;11.57;;;8.07;;
22166;SDS011;11249;52.468;13.776;2022-10-17T16:09:45;9.10;;;7.28;;
22166;SDS011;11249;52.468;13.776;2022-10-17T16:12:16;13.07;;;7.40;;
22166;SDS011;11249;52.468;13.776;2022-10-17T16:14:49;12.23;;;7.82;;
22166;SDS011;11249;52.468;13.776;2022-10-17T16:17:15;9.52;;;6.82;;
22166;SDS011;11249;52.468;13.776;2022-10-17T16:19:42;14.35;;;8.13;;
22166;SDS011;11249;52.468;13.776;2022-10-17T16:22:15;13.35;;;8.38;;
22166;SDS011;11249;52.468;13.776;2022-10-17T16:24:51;11.75;;;8.05;;
22166;SDS011;11249;52.468;13.776;2022-10-17T16:27:24;10.23;;;7.05;;